Time;durP1;ratioP1;P1;durP2;ratioP2;P2;SDS_P1;SDS_P2;PMS_P1;PMS_P2;Temp;Humidity;BMP_temperature;BMP_pressure;BME280_temperature;BME280_humidity;BME280_pressure;Samples;Min_cycle;Max_cycle;Signal;HPM_P1;HPM_P2
2023/03/16 00:01:05;;;;;;;16.23;9.93;;;0.50;99.90;;;;;;5094376;28;20107;-64
2023/03/16 00:03:30;;;;;;;23.40;10.25;;;0.50;99.90;;;;;;5094169;28;20140;-64
2023/03/16 00:05:56;;;;;;;20.92;9.85;;;0.50;99.90;;;;;;5094188;28;20486;-64
2023/03/16 00:08:21;;;;;;;17.60;9.13;;;0.60;99.90;;;;;;5094112;28;20393;-65
2023/03/16 00:10:47;;;;;;;14.38;8.95;;;0.60;99.90;;;;;;5094262;28;20024;-64
2023/03/16 00:13:14;;;;;;;16.55;9.13;;;0.50;99.90;;;;;;5094110;28;20024;-64
2023/03/16 00:15:40;;;;;;;17.65;9.18;;;0.50;99.90;;;;;;5094072;28;20020;-65
2023/03/16 00:18:06;;;;;;;15.82;9.32;;;0.50;99.90;;;;;;5094239;28;20081;-64
2023/03/16 00:20:32;;;;;;;16.58;8.57;;;0.40;99.90;;;;;;5094197;28;20020;-65
2023/03/16 00:22:58;;;;;;;16.48;9.35;;;0.30;99.90;;;;;;5093872;28;20111;-64
2023/03/16 00:25:23;;;;;;;14.48;8.77;;;0.30;99.90;;;;;;5093677;28;20115;-64
2023/03/16 00:27:49;;;;;;;20.63;8.85;;;0.20;99.90;;;;;;5094058;28;20036;-65
2023/03/16 00:30:15;;;;;;;16.73;8.50;;;0.10;99.90;;;;;;5093718;28;20044;-64
2023/03/16 00:32:40;;;;;;;19.83;9.15;;;0.10;99.90;;;;;;5094017;28;20385;-64
2023/03/16 00:35:06;;;;;;;23.42;9.18;;;0.10;99.90;;;;;;5093704;28;20102;-64
2023/03/16 00:37:32;;;;;;;23.73;9.57;;;0.10;99.90;;;;;;5093729;28;20099;-64
2023/03/16 00:39:59;;;;;;;18.13;8.70;;;0.10;99.90;;;;;;5093762;28;20080;-64
2023/03/16 00:42:27;;;;;;;16.13;8.38;;;0.10;99.90;;;;;;5093694;28;20073;-64
2023/03/16 00:44:56;;;;;;;15.93;8.75;;;0.10;99.90;;;;;;5093502;28;20397;-64
2023/03/16 00:47:23;;;;;;;16.38;8.77;;;0.10;99.90;;;;;;5093733;28;20024;-64
2023/03/16 00:49:49;;;;;;;18.90;9.10;;;0.10;99.90;;;;;;5093697;28;20078;-64
2023/03/16 00:52:15;;;;;;;14.88;7.85;;;0.10;99.90;;;;;;5093420;28;20020;-64
2023/03/16 00:54:42;;;;;;;15.88;8.35;;;0.30;99.90;;;;;;5093489;28;20024;-64
2023/03/16 00:57:10;;;;;;;17.08;8.18;;;0.30;99.90;;;;;;5093434;28;20027;-65
2023/03/16 00:59:36;;;;;;;14.18;7.65;;;0.30;99.90;;;;;;5092337;28;20032;-65
2023/03/16 01:02:04;;;;;;;15.00;8.07;;;0.30;99.90;;;;;;5092279;28;20413;-65
2023/03/16 01:04:31;;;;;;;13.13;7.25;;;0.30;99.90;;;;;;5093056;28;20386;-64
2023/03/16 01:06:57;;;;;;;15.30;7.90;;;0.30;99.90;;;;;;5093365;28;20499;-64
2023/03/16 01:09:22;;;;;;;16.98;7.63;;;0.30;99.90;;;;;;5093523;28;20024;-64
2023/03/16 01:11:52;;;;;;;11.95;6.68;;;0.30;99.90;;;;;;5092982;28;20081;-64
2023/03/16 01:14:17;;;;;;;16.00;7.28;;;0.30;99.90;;;;;;5093198;28;20032;-64
2023/03/16 01:16:44;;;;;;;15.10;7.40;;;0.30;99.90;;;;;;5093254;28;20486;-64
2023/03/16 01:19:11;;;;;;;13.20;7.85;;;0.30;99.90;;;;;;5093457;28;20031;-64
2023/03/16 01:21:37;;;;;;;18.10;8.20;;;0.30;99.90;;;;;;5093227;28;20024;-64
2023/03/16 01:24:03;;;;;;;16.92;7.93;;;0.30;99.90;;;;;;5093203;28;20539;-65
2023/03/16 01:26:29;;;;;;;13.68;7.38;;;0.30;99.90;;;;;;5093003;28;20020;-64
2023/03/16 01:28:55;;;;;;;13.32;7.25;;;0.20;99.90;;;;;;5093045;28;20024;-64
2023/03/16 01:31:20;;;;;;;12.55;7.75;;;0.30;99.90;;;;;;5093065;28;20363;-64
2023/03/16 01:33:46;;;;;;;12.40;6.78;;;0.20;99.90;;;;;;5093075;28;20111;-64
2023/03/16 01:36:14;;;;;;;18.85;8.23;;;0.20;99.90;;;;;;5092981;28;20066;-65
2023/03/16 01:38:40;;;;;;;11.90;6.95;;;0.10;99.90;;;;;;5093259;28;20032;-64
2023/03/16 01:41:06;;;;;;;13.02;6.65;;;0.00;99.90;;;;;;5093318;28;20081;-65
2023/03/16 01:43:33;;;;;;;17.40;7.97;;;0.00;99.90;;;;;;5093141;28;20067;-64
2023/03/16 01:48:50;;;;;;;12.95;6.45;;;-0.10;99.90;;;;;;5111155;27;20376;-63
2023/03/16 01:51:30;;;;;;;16.13;7.80;;;-0.10;99.90;;;;;;5110883;28;20028;-63
2023/03/16 01:54:01;;;;;;;16.55;7.80;;;-0.10;99.90;;;;;;5110729;28;20053;-66
2023/03/16 01:56:33;;;;;;;11.38;6.45;;;-0.20;99.90;;;;;;5111132;28;20046;-64
2023/03/16 01:59:01;;;;;;;13.93;7.40;;;-0.10;99.90;;;;;;5111293;28;20028;-63
2023/03/16 02:01:27;;;;;;;17.38;8.10;;;-0.10;99.90;;;;;;5110650;28;20485;-63
2023/03/16 02:04:12;;;;;;;13.90;7.55;;;0.00;99.90;;;;;;5110988;28;20020;-63
2023/03/16 02:06:38;;;;;;;14.45;7.45;;;0.00;99.90;;;;;;5111002;28;20035;-63
2023/03/16 02:09:05;;;;;;;14.77;7.53;;;0.00;99.90;;;;;;5110997;28;20016;-63
2023/03/16 02:11:30;;;;;;;15.35;7.70;;;0.00;99.90;;;;;;5110983;28;20032;-64
2023/03/16 02:14:01;;;;;;;12.57;6.75;;;0.00;99.90;;;;;;5110865;28;20095;-64
2023/03/16 02:16:26;;;;;;;14.30;6.68;;;-0.10;99.90;;;;;;5110589;28;20031;-63
2023/03/16 02:18:52;;;;;;;11.85;6.78;;;-0.20;99.90;;;;;;5110378;28;20024;-63
2023/03/16 02:21:28;;;;;;;11.80;6.75;;;-0.30;99.90;;;;;;5110541;28;20020;-63
2023/03/16 02:23:54;;;;;;;11.63;6.40;;;-0.30;99.90;;;;;;5110458;28;20119;-63
2023/03/16 02:26:43;;;;;;;12.27;6.63;;;-0.40;99.90;;;;;;5110624;28;20081;-63
2023/03/16 02:32:01;;;;;;;13.43;7.38;;;-0.30;99.90;;;;;;5070706;28;20403;-63
2023/03/16 02:34:28;;;;;;;14.98;6.88;;;-0.20;99.90;;;;;;5070757;28;20037;-63
2023/03/16 02:36:54;;;;;;;12.27;6.60;;;-0.20;99.90;;;;;;5070617;28;20311;-63
2023/03/16 02:39:20;;;;;;;15.57;6.60;;;-0.10;99.90;;;;;;5070639;28;20021;-63
2023/03/16 02:41:46;;;;;;;12.27;6.65;;;0.00;99.90;;;;;;5070837;28;20033;-63
2023/03/16 02:44:18;;;;;;;13.65;6.78;;;0.00;99.90;;;;;;5070431;28;20475;-63
2023/03/16 02:46:46;;;;;;;15.80;7.30;;;0.10;99.90;;;;;;5070347;28;20051;-63
2023/03/16 02:49:31;;;;;;;13.52;6.63;;;0.20;99.90;;;;;;5070348;28;20035;-63
2023/03/16 02:51:57;;;;;;;15.82;7.13;;;0.30;99.90;;;;;;5070333;28;20086;-63
2023/03/16 02:54:23;;;;;;;17.38;5.80;;;0.30;99.90;;;;;;5070280;28;20037;-63
2023/03/16 02:56:49;;;;;;;8.63;5.95;;;0.40;1.00;;;;;;5070140;28;20029;-63
2023/03/16 02:59:14;;;;;;;16.30;7.03;;;0.50;1.00;;;;;;5069745;28;20059;-63
2023/03/16 03:01:40;;;;;;;10.65;6.18;;;0.60;1.00;;;;;;5070089;28;20031;-64
2023/03/16 03:04:06;;;;;;;10.65;5.47;;;0.60;1.00;;;;;;5070056;28;20024;-63
2023/03/16 03:06:32;;;;;;;14.00;6.65;;;0.60;1.00;;;;;;5070024;28;20028;-64
2023/03/16 03:08:58;;;;;;;14.90;6.18;;;0.70;1.00;;;;;;5069642;28;20031;-63
2023/03/16 03:11:24;;;;;;;14.65;6.57;;;0.70;1.00;;;;;;5069948;28;20112;-63
2023/03/16 03:13:49;;;;;;;12.60;5.88;;;0.80;1.00;;;;;;5069946;28;20479;-63
2023/03/16 03:16:15;;;;;;;11.88;5.38;;;0.90;1.00;;;;;;5069614;28;20024;-63
2023/03/16 03:18:41;;;;;;;12.55;5.50;;;1.00;1.00;;;;;;5069800;28;20033;-63
2023/03/16 03:21:06;;;;;;;12.57;5.57;;;1.10;1.00;;;;;;5069907;28;20429;-63
2023/03/16 03:23:34;;;;;;;10.88;5.13;;;1.10;1.00;;;;;;5069603;28;20060;-63
2023/03/16 03:26:01;;;;;;;9.90;5.25;;;1.20;1.00;;;;;;5069756;28;20029;-63
2023/03/16 03:28:27;;;;;;;17.33;5.50;;;1.20;99.90;;;;;;5069444;28;20028;-63
2023/03/16 03:30:53;;;;;;;9.57;5.07;;;1.30;99.90;;;;;;5069112;28;20111;-63
2023/03/16 03:33:18;;;;;;;13.25;5.05;;;1.40;99.90;;;;;;5069301;28;20032;-63
2023/03/16 03:35:44;;;;;;;13.32;4.82;;;1.60;99.90;;;;;;5069524;28;20069;-63
2023/03/16 03:38:10;;;;;;;7.70;4.57;;;1.70;99.90;;;;;;5069344;28;20078;-63
2023/03/16 03:40:36;;;;;;;9.10;4.00;;;1.80;99.90;;;;;;5069304;28;20506;-63
2023/03/16 03:43:03;;;;;;;7.45;3.53;;;1.90;99.90;;;;;;5056572;28;20029;-63
2023/03/16 03:45:29;;;;;;;12.75;4.22;;;2.10;99.90;;;;;;5055865;28;20394;-63
2023/03/16 03:47:55;;;;;;;7.85;4.20;;;2.40;99.90;;;;;;5055800;28;20029;-64
2023/03/16 03:50:21;;;;;;;7.95;3.95;;;2.60;92.50;;;;;;5055959;28;20037;-63
2023/03/16 03:52:46;;;;;;;8.45;3.85;;;2.80;19.30;;;;;;5055888;28;20026;-63
2023/03/16 03:55:12;;;;;;;7.93;3.72;;;2.80;3.50;;;;;;5055850;28;20036;-63
2023/03/16 03:57:37;;;;;;;7.53;4.20;;;2.90;1.00;;;;;;5055915;28;20075;-64
2023/03/16 04:00:08;;;;;;;8.00;3.70;;;2.90;1.00;;;;;;5055656;28;20037;-63
2023/03/16 04:02:34;;;;;;;8.52;3.85;;;3.00;1.00;;;;;;5055766;28;20429;-63
2023/03/16 04:04:59;;;;;;;6.35;3.97;;;3.10;1.00;;;;;;5055584;28;20029;-63
2023/03/16 04:07:25;;;;;;;7.22;4.13;;;3.10;99.90;;;;;;5055295;28;20021;-63
2023/03/16 04:09:50;;;;;;;7.68;3.88;;;3.10;99.90;;;;;;5055452;28;20061;-63
2023/03/16 04:12:16;;;;;;;8.63;4.03;;;3.20;99.90;;;;;;5055391;28;20086;-63
2023/03/16 04:14:42;;;;;;;6.10;3.25;;;3.10;99.90;;;;;;5055525;28;20037;-63
2023/03/16 04:17:07;;;;;;;8.63;3.45;;;3.10;99.90;;;;;;5055592;28;20021;-63
2023/03/16 04:19:33;;;;;;;7.97;3.90;;;3.10;99.90;;;;;;5054493;28;20031;-63
2023/03/16 04:21:58;;;;;;;5.28;3.00;;;3.10;99.90;;;;;;5055436;28;20037;-63
2023/03/16 04:24:24;;;;;;;7.90;3.65;;;3.00;99.90;;;;;;5055418;28;20025;-64
2023/03/16 04:26:49;;;;;;;7.13;3.38;;;3.00;99.90;;;;;;5055357;28;20037;-63
2023/03/16 04:29:17;;;;;;;8.73;3.90;;;3.00;99.90;;;;;;5055185;28;20031;-63
2023/03/16 04:31:43;;;;;;;7.05;2.95;;;3.10;99.90;;;;;;5053720;28;20422;-63
2023/03/16 04:34:10;;;;;;;4.80;3.08;;;3.00;99.90;;;;;;5055062;28;20028;-64
2023/03/16 04:36:37;;;;;;;9.30;4.03;;;3.10;99.90;;;;;;5055006;28;20025;-64
2023/03/16 04:39:03;;;;;;;8.70;3.78;;;3.00;99.90;;;;;;5054837;28;20039;-63
2023/03/16 04:41:29;;;;;;;8.68;3.58;;;3.10;99.90;;;;;;5054966;28;20033;-63
2023/03/16 04:43:56;;;;;;;5.90;3.50;;;3.00;99.90;;;;;;5054821;28;20074;-63
2023/03/16 04:46:22;;;;;;;8.63;4.07;;;3.10;99.90;;;;;;5054809;28;20052;-63
2023/03/16 04:48:48;;;;;;;6.35;3.47;;;3.10;99.90;;;;;;5054747;28;20025;-63
2023/03/16 04:51:14;;;;;;;13.20;3.47;;;3.20;99.90;;;;;;5054645;28;20033;-63
2023/03/16 04:53:39;;;;;;;7.78;3.28;;;3.10;99.90;;;;;;5053915;28;20025;-63
2023/03/16 04:56:06;;;;;;;5.95;3.13;;;3.20;99.90;;;;;;5054914;28;20108;-63
2023/03/16 04:58:31;;;;;;;10.30;3.83;;;3.20;99.90;;;;;;5054494;28;20478;-63
2023/03/16 05:00:57;;;;;;;12.90;4.13;;;3.20;99.90;;;;;;5054672;28;20032;-63
2023/03/16 05:03:23;;;;;;;6.70;3.38;;;3.20;99.90;;;;;;5054319;28;20025;-63
2023/03/16 05:05:49;;;;;;;10.05;3.65;;;3.10;99.90;;;;;;5054426;28;20105;-64
2023/03/16 05:08:15;;;;;;;7.68;3.92;;;3.20;99.90;;;;;;5054413;28;20399;-64
2023/03/16 05:10:41;;;;;;;11.05;3.58;;;3.20;99.90;;;;;;5054413;28;20027;-64
2023/03/16 05:13:07;;;;;;;5.75;3.65;;;3.20;99.90;;;;;;5054323;28;20025;-63
2023/03/16 05:15:33;;;;;;;6.20;3.42;;;3.20;99.90;;;;;;5054310;28;20032;-63
2023/03/16 05:17:58;;;;;;;7.88;3.53;;;3.30;80.30;;;;;;5053931;28;20131;-63
2023/03/16 05:20:24;;;;;;;6.85;3.42;;;3.30;99.90;;;;;;5054008;28;20100;-63
2023/03/16 05:22:50;;;;;;;6.95;3.00;;;3.30;99.90;;;;;;5054067;28;20055;-63
2023/03/16 05:25:17;;;;;;;9.63;3.50;;;3.30;39.90;;;;;;5054266;28;20036;-63
2023/03/16 05:27:45;;;;;;;12.95;4.22;;;3.30;32.20;;;;;;5054050;28;20494;-63
2023/03/16 05:30:13;;;;;;;8.55;3.38;;;3.40;43.90;;;;;;5053693;28;20045;-63
2023/03/16 05:32:38;;;;;;;6.90;3.47;;;3.40;1.00;;;;;;5054136;28;20115;-64
2023/03/16 05:35:05;;;;;;;9.10;3.63;;;3.50;1.00;;;;;;5053961;28;20084;-63
2023/03/16 05:37:31;;;;;;;8.73;3.42;;;3.50;1.00;;;;;;5052627;28;20021;-63
2023/03/16 05:39:57;;;;;;;7.28;3.25;;;3.60;1.00;;;;;;5053845;28;20489;-63
2023/03/16 05:42:25;;;;;;;7.65;3.20;;;3.50;1.00;;;;;;5053723;28;20363;-63
2023/03/16 05:44:51;;;;;;;9.25;3.17;;;3.50;1.00;;;;;;5053698;28;20025;-63
2023/03/16 05:47:17;;;;;;;5.30;3.00;;;3.60;1.00;;;;;;5053836;28;20025;-63
2023/03/16 05:49:42;;;;;;;6.72;3.42;;;3.60;1.00;;;;;;5053539;28;20039;-64
2023/03/16 05:52:08;;;;;;;10.90;3.05;;;3.60;1.00;;;;;;5053624;28;20467;-63
2023/03/16 05:54:33;;;;;;;10.02;3.38;;;3.60;1.00;;;;;;5053674;28;20035;-64
2023/03/16 05:56:59;;;;;;;7.43;3.10;;;3.60;1.00;;;;;;5053473;28;20025;-63
2023/03/16 05:59:24;;;;;;;8.00;3.15;;;3.80;99.90;;;;;;5053660;28;20029;-63
2023/03/16 06:01:50;;;;;;;7.25;3.00;;;3.80;99.90;;;;;;5053460;28;20033;-63
2023/03/16 06:04:15;;;;;;;6.85;3.38;;;3.80;99.90;;;;;;5053377;28;20466;-63
2023/03/16 06:06:41;;;;;;;6.68;3.10;;;3.80;99.90;;;;;;5053254;28;20104;-63
2023/03/16 06:09:08;;;;;;;8.95;3.88;;;3.80;99.90;;;;;;5053237;28;20020;-63
2023/03/16 06:11:33;;;;;;;7.82;3.17;;;3.80;99.90;;;;;;5053275;28;20029;-63
2023/03/16 06:13:59;;;;;;;6.75;3.22;;;3.80;99.90;;;;;;5053227;28;20024;-63
2023/03/16 06:16:25;;;;;;;6.00;3.20;;;3.80;99.90;;;;;;5053212;28;20021;-63
2023/03/16 06:18:50;;;;;;;7.47;3.13;;;3.80;99.90;;;;;;5053270;28;20021;-63
2023/03/16 06:21:16;;;;;;;9.15;3.47;;;3.90;99.90;;;;;;5053182;28;20029;-63
2023/03/16 06:23:42;;;;;;;7.00;3.60;;;4.00;99.90;;;;;;5053143;28;20029;-63
2023/03/16 06:26:07;;;;;;;7.18;2.88;;;3.90;99.90;;;;;;5053283;28;20394;-63
2023/03/16 06:28:33;;;;;;;10.75;3.08;;;4.00;99.90;;;;;;5053213;28;20485;-64
2023/03/16 06:30:58;;;;;;;6.35;3.08;;;4.10;99.90;;;;;;5052806;28;20048;-64
2023/03/16 06:33:24;;;;;;;6.45;3.20;;;4.10;99.90;;;;;;5053188;28;20043;-64
2023/03/16 06:35:50;;;;;;;8.75;3.20;;;4.20;99.90;;;;;;5053195;28;20029;-64
2023/03/16 06:38:17;;;;;;;9.68;3.72;;;4.30;1.00;;;;;;5053261;28;20032;-63
2023/03/16 06:40:43;;;;;;;6.70;3.10;;;4.30;1.00;;;;;;5052954;28;20506;-63
2023/03/16 06:43:09;;;;;;;4.68;2.80;;;4.40;99.90;;;;;;5051867;28;20029;-63
2023/03/16 06:45:34;;;;;;;8.95;3.30;;;4.50;99.90;;;;;;5053075;28;20029;-63
2023/03/16 06:48:00;;;;;;;6.70;2.88;;;4.50;1.00;;;;;;5052790;28;20033;-63
2023/03/16 06:50:26;;;;;;;5.57;3.05;;;4.60;99.90;;;;;;5052952;28;20025;-63
2023/03/16 06:52:52;;;;;;;12.05;3.30;;;4.70;99.90;;;;;;5052970;28;20025;-63
2023/03/16 06:55:18;;;;;;;6.43;3.20;;;4.80;1.00;;;;;;5052693;28;20032;-63
2023/03/16 06:57:43;;;;;;;6.80;3.25;;;4.90;1.00;;;;;;5052759;28;20029;-63
2023/03/16 07:00:12;;;;;;;6.40;2.80;;;4.90;1.00;;;;;;5052763;28;20086;-63
2023/03/16 07:02:39;;;;;;;9.50;3.17;;;5.10;1.00;;;;;;5052839;28;20108;-65
2023/03/16 07:05:06;;;;;;;6.95;2.90;;;5.20;14.80;;;;;;5052699;28;20044;-63
2023/03/16 07:07:32;;;;;;;10.60;2.88;;;5.40;1.00;;;;;;5052505;28;20053;-63
2023/03/16 07:09:58;;;;;;;10.38;3.10;;;5.60;99.90;;;;;;5052747;28;20087;-63
2023/03/16 07:12:24;;;;;;;6.13;3.22;;;5.80;99.90;;;;;;5052838;28;20111;-63
2023/03/16 07:14:50;;;;;;;13.45;3.25;;;5.90;1.00;;;;;;5052710;28;20028;-63
2023/03/16 07:17:15;;;;;;;4.88;2.92;;;6.00;1.00;;;;;;5053753;28;20020;-63
2023/03/16 07:19:42;;;;;;;6.07;3.00;;;5.90;1.00;;;;;;5056439;28;20036;-63
2023/03/16 07:22:08;;;;;;;5.47;2.95;;;5.90;1.00;;;;;;5056485;28;20028;-63
2023/03/16 07:24:33;;;;;;;5.80;3.22;;;5.90;1.00;;;;;;5056468;28;20025;-63
2023/03/16 07:26:59;;;;;;;4.38;3.00;;;5.90;99.90;;;;;;5056279;28;20166;-63
2023/03/16 07:29:24;;;;;;;9.80;3.17;;;6.10;1.00;;;;;;5056060;28;20052;-63
2023/03/16 07:31:50;;;;;;;4.35;2.80;;;6.30;1.00;;;;;;5054642;28;20049;-63
2023/03/16 07:34:15;;;;;;;5.35;3.08;;;6.40;99.90;;;;;;5056231;28;20024;-63
2023/03/16 07:36:41;;;;;;;5.25;2.70;;;6.30;99.90;;;;;;5055981;28;20470;-63
2023/03/16 07:39:06;;;;;;;5.53;3.03;;;6.50;99.90;;;;;;5056030;28;20029;-63
2023/03/16 07:41:32;;;;;;;8.77;3.30;;;6.50;35.30;;;;;;5056004;28;20039;-63
2023/03/16 07:43:57;;;;;;;7.18;3.03;;;6.40;99.90;;;;;;5056075;28;20376;-64
2023/03/16 07:46:23;;;;;;;4.97;2.95;;;6.30;99.90;;;;;;5055773;28;20079;-63
2023/03/16 07:48:49;;;;;;;7.22;3.13;;;6.30;99.90;;;;;;5055775;28;20115;-64
2023/03/16 07:51:15;;;;;;;8.05;3.10;;;6.20;99.90;;;;;;5055571;28;20112;-63
2023/03/16 07:53:41;;;;;;;5.53;3.20;;;6.20;99.90;;;;;;5055525;28;20025;-63
2023/03/16 07:56:07;;;;;;;8.40;3.25;;;6.40;99.90;;;;;;5055755;28;20033;-63
2023/03/16 07:58:32;;;;;;;6.57;2.97;;;6.40;1.00;;;;;;5055534;28;20020;-63
2023/03/16 08:00:58;;;;;;;5.88;2.92;;;6.50;99.90;;;;;;5055629;28;20368;-63
2023/03/16 08:03:25;;;;;;;5.32;2.58;;;6.90;87.80;;;;;;5055417;28;20032;-63
2023/03/16 08:05:52;;;;;;;6.00;3.20;;;6.80;99.90;;;;;;5055554;28;20508;-63
2023/03/16 08:08:19;;;;;;;6.38;3.25;;;6.90;1.00;;;;;;5051859;28;20029;-63
2023/03/16 08:10:47;;;;;;;9.35;3.13;;;7.20;99.90;;;;;;5053962;28;20074;-64
2023/03/16 08:13:13;;;;;;;9.27;3.40;;;7.20;99.90;;;;;;5045738;28;20033;-65
2023/03/16 08:15:39;;;;;;;7.90;2.78;;;7.10;99.90;;;;;;5037716;28;20031;-63
2023/03/16 08:18:06;;;;;;;7.32;3.20;;;6.90;1.00;;;;;;5053179;28;20404;-64
2023/03/16 08:20:32;;;;;;;6.63;3.22;;;7.00;1.00;;;;;;5035220;28;20119;-63
2023/03/16 08:22:58;;;;;;;4.38;3.22;;;6.80;1.00;;;;;;5064555;28;20498;-63
2023/03/16 08:25:25;;;;;;;5.40;3.20;;;6.80;1.00;;;;;;5055008;28;20110;-63
2023/03/16 08:27:51;;;;;;;5.60;3.35;;;6.70;1.00;;;;;;5048126;28;20036;-63
2023/03/16 08:30:17;;;;;;;6.55;3.30;;;6.70;99.90;;;;;;5054570;28;20049;-63
2023/03/16 08:32:43;;;;;;;5.50;3.28;;;6.90;84.30;;;;;;5073311;28;20478;-63
2023/03/16 08:35:12;;;;;;;8.93;3.00;;;7.00;25.50;;;;;;5055227;28;20029;-64
2023/03/16 08:37:39;;;;;;;9.20;3.60;;;7.10;1.00;;;;;;5055038;28;20032;-63
2023/03/16 08:40:09;;;;;;;4.28;3.10;;;7.40;1.00;;;;;;5054663;28;20029;-63
2023/03/16 08:42:35;;;;;;;6.82;2.90;;;7.60;99.90;;;;;;5054691;28;20025;-63
2023/03/16 08:45:08;;;;;;;5.55;3.20;;;7.60;99.90;;;;;;5053544;28;20021;-63
2023/03/16 08:47:34;;;;;;;6.60;2.92;;;7.50;99.90;;;;;;5055811;28;20072;-63
2023/03/16 08:50:00;;;;;;;4.88;3.10;;;7.70;99.90;;;;;;5074441;28;20402;-64
2023/03/16 08:52:26;;;;;;;4.72;3.03;;;7.90;99.90;;;;;;5074434;28;20129;-63
2023/03/16 08:54:51;;;;;;;5.90;2.63;;;7.80;21.90;;;;;;5074441;28;20215;-63
2023/03/16 08:57:17;;;;;;;5.05;3.17;;;8.00;19.40;;;;;;5058197;28;20027;-63
2023/03/16 08:59:43;;;;;;;4.07;2.85;;;8.20;31.50;;;;;;5054295;28;20028;-63
2023/03/16 09:02:12;;;;;;;5.72;2.90;;;8.50;1.00;;;;;;5053930;28;20036;-64
2023/03/16 09:04:39;;;;;;;4.22;2.92;;;8.60;1.00;;;;;;5055016;28;20049;-64
2023/03/16 09:07:04;;;;;;;3.63;2.35;;;8.70;1.00;;;;;;5053995;28;20017;-64
2023/03/16 09:09:31;;;;;;;5.63;2.70;;;8.90;99.90;;;;;;5054294;28;20040;-64
2023/03/16 09:11:57;;;;;;;6.70;3.17;;;8.70;99.90;;;;;;5052888;28;20078;-64
2023/03/16 09:14:24;;;;;;;5.80;2.70;;;8.50;99.90;;;;;;5054002;28;20028;-64
2023/03/16 09:16:49;;;;;;;6.53;3.17;;;8.60;99.90;;;;;;5054107;28;20090;-64
2023/03/16 09:19:15;;;;;;;6.10;3.15;;;8.40;99.90;;;;;;5052666;28;20426;-64
2023/03/16 09:21:41;;;;;;;7.55;3.13;;;8.30;99.90;;;;;;5054476;28;20395;-64
2023/03/16 09:24:07;;;;;;;4.57;3.08;;;8.10;1.00;;;;;;5053845;28;20025;-64
2023/03/16 09:26:34;;;;;;;5.72;2.90;;;8.30;1.00;;;;;;5054101;28;20520;-64
2023/03/16 09:28:59;;;;;;;5.35;2.55;;;8.20;1.00;;;;;;5053602;28;20088;-64
2023/03/16 09:31:25;;;;;;;6.90;3.03;;;8.30;99.90;;;;;;5053641;28;20446;-64
2023/03/16 09:33:51;;;;;;;6.00;3.08;;;8.40;99.90;;;;;;5054076;28;20017;-64
2023/03/16 09:36:16;;;;;;;4.82;2.95;;;8.60;99.90;;;;;;5053803;28;20498;-64
2023/03/16 09:38:43;;;;;;;5.63;2.80;;;8.50;99.90;;;;;;5054199;28;20233;-64
2023/03/16 09:41:28;;;;;;;6.95;2.83;;;8.60;99.90;;;;;;5051891;28;20505;-64
2023/03/16 09:44:22;;;;;;;5.40;3.00;;;8.60;99.90;;;;;;5053585;28;20059;-64
2023/03/16 09:46:49;;;;;;;6.18;2.63;;;8.20;99.90;;;;;;5053805;28;20036;-64
2023/03/16 09:49:18;;;;;;;6.13;3.15;;;8.20;99.90;;;;;;5053734;28;20565;-64
2023/03/16 09:52:07;;;;;;;6.68;3.30;;;8.20;99.90;;;;;;5053421;28;20075;-63
2023/03/16 09:54:46;;;;;;;3.67;3.00;;;8.00;99.90;;;;;;5053276;28;20372;-64
2023/03/16 09:57:26;;;;;;;4.45;2.67;;;8.00;99.90;;;;;;5053911;28;20071;-65
2023/03/16 09:59:53;;;;;;;3.88;2.60;;;8.00;99.90;;;;;;5052016;28;20025;-64
2023/03/16 10:05:10;;;;;;;7.00;2.92;;;8.20;99.90;;;;;;5119070;27;20436;-64
2023/03/16 10:08:17;;;;;;;7.25;2.55;;;8.10;99.90;;;;;;5118204;27;20477;-63
2023/03/16 10:11:11;;;;;;;6.53;3.33;;;8.30;99.90;;;;;;5090311;28;20070;-64
2023/03/16 10:13:43;;;;;;;6.07;3.15;;;8.50;99.90;;;;;;5106520;28;20024;-64
2023/03/16 10:16:19;;;;;;;4.05;2.53;;;8.60;99.90;;;;;;5115363;28;20481;-63
2023/03/16 10:18:49;;;;;;;3.58;2.78;;;8.50;99.90;;;;;;5125231;27;20393;-63
2023/03/16 10:21:17;;;;;;;5.93;2.90;;;8.40;99.90;;;;;;5120699;28;20063;-64
2023/03/16 10:23:45;;;;;;;5.72;3.13;;;8.40;99.90;;;;;;5125958;27;20143;-64
2023/03/16 10:26:17;;;;;;;4.65;3.00;;;8.40;99.90;;;;;;5113814;27;20020;-64
2023/03/16 10:28:44;;;;;;;5.28;2.83;;;8.40;99.90;;;;;;5125200;27;20027;-64
2023/03/16 10:31:11;;;;;;;6.07;2.88;;;8.30;99.90;;;;;;5120462;28;20484;-64
2023/03/16 10:33:38;;;;;;;8.05;3.28;;;8.50;99.90;;;;;;5117409;27;20477;-64
2023/03/16 10:38:45;;;;;;;6.68;3.17;;;8.60;99.90;;;;;;5112663;27;20351;-64
2023/03/16 10:41:24;;;;;;;6.03;2.83;;;8.70;99.90;;;;;;5110688;28;20031;-64
2023/03/16 10:43:54;;;;;;;5.15;3.20;;;8.70;99.90;;;;;;5095582;28;20055;-64
2023/03/16 10:46:21;;;;;;;4.50;2.85;;;8.80;99.90;;;;;;5106626;28;20028;-64
2023/03/16 10:48:58;;;;;;;3.92;2.80;;;9.00;99.90;;;;;;5103374;28;20028;-66
2023/03/16 10:51:31;;;;;;;5.47;2.78;;;9.10;99.90;;;;;;5100467;28;20027;-66
2023/03/16 10:54:13;;;;;;;4.68;2.85;;;9.00;39.60;;;;;;5094620;28;20028;-66
2023/03/16 10:56:39;;;;;;;6.57;2.60;;;9.10;99.90;;;;;;5094857;28;20031;-66
2023/03/16 10:59:26;;;;;;;5.55;3.60;;;9.30;99.90;;;;;;5096377;28;20435;-64
2023/03/16 11:01:53;;;;;;;4.97;3.30;;;9.10;99.90;;;;;;5094880;28;20028;-64
2023/03/16 11:04:19;;;;;;;5.68;2.97;;;9.10;99.90;;;;;;5095079;28;20024;-64
2023/03/16 11:06:54;;;;;;;6.68;3.60;;;9.10;99.90;;;;;;5104042;28;20027;-64
2023/03/16 11:09:24;;;;;;;3.67;2.80;;;9.00;99.90;;;;;;5110280;28;20035;-63
2023/03/16 11:11:50;;;;;;;5.68;3.13;;;8.90;47.10;;;;;;5100008;28;20119;-64
2023/03/16 11:14:21;;;;;;;3.75;2.50;;;8.90;50.70;;;;;;5093400;28;20114;-64
2023/03/16 11:17:11;;;;;;;4.97;2.60;;;9.00;99.90;;;;;;5103568;28;20063;-63
2023/03/16 11:19:44;;;;;;;7.25;3.10;;;9.10;13.50;;;;;;5093676;28;20020;-64
2023/03/16 11:27:42;;;;;;;4.55;3.42;;;9.20;84.20;;;;;;5123034;27;20379;-64
2023/03/16 11:30:29;;;;;;;6.45;3.28;;;9.50;34.00;;;;;;5113850;27;20480;-64
2023/03/16 11:32:59;;;;;;;5.05;2.63;;;9.60;89.00;;;;;;5123814;27;20020;-64
2023/03/16 11:38:54;;;;;;;6.93;3.30;;;10.00;1.00;;;;;;5069717;28;20394;-65
2023/03/16 11:41:50;;;;;;;8.50;3.17;;;9.80;1.00;;;;;;5065123;28;20112;-63
2023/03/16 11:44:27;;;;;;;4.93;2.85;;;9.80;1.00;;;;;;5066587;28;20427;-64
2023/03/16 11:50:12;;;;;;;4.28;2.72;;;9.60;1.00;;;;;;5065413;28;20415;-64
2023/03/16 11:53:05;;;;;;;7.03;3.00;;;9.50;1.00;;;;;;5050130;28;20045;-63
2023/03/16 11:55:44;;;;;;;;;;;9.40;1.00;;;;;;5055761;28;20040;-63
2023/03/16 11:58:39;;;;;;;6.28;2.92;;;9.40;1.00;;;;;;5069825;28;19912;-63
2023/03/16 12:01:31;;;;;;;5.35;3.30;;;9.40;1.00;;;;;;5067758;28;20386;-63
2023/03/16 12:04:37;;;;;;;6.95;2.92;;;9.40;1.00;;;;;;5068890;28;20496;-63
2023/03/16 12:07:27;;;;;;;5.93;3.22;;;9.50;8.70;;;;;;5071408;28;20474;-63
2023/03/16 12:10:01;;;;;;;6.53;2.90;;;9.50;1.00;;;;;;5071000;28;20037;-64
2023/03/16 12:12:52;;;;;;;5.07;3.03;;;9.50;1.00;;;;;;5066477;28;20394;-64
2023/03/16 12:15:31;;;;;;;4.10;2.63;;;9.60;1.00;;;;;;5068320;28;20402;-67
2023/03/16 12:18:01;;;;;;;7.13;3.15;;;9.50;1.00;;;;;;5069060;28;20025;-64
2023/03/16 12:20:32;;;;;;;3.75;2.65;;;9.50;1.00;;;;;;5070098;28;20071;-65
2023/03/16 12:23:03;;;;;;;6.47;2.70;;;9.60;1.00;;;;;;5068728;28;20021;-64
2023/03/16 12:25:33;;;;;;;5.65;2.58;;;9.50;1.00;;;;;;5063704;28;20021;-65
2023/03/16 12:28:04;;;;;;;3.90;2.65;;;9.60;1.00;;;;;;5050469;28;20065;-64
2023/03/16 12:30:58;;;;;;;3.55;2.42;;;9.70;1.00;;;;;;5056282;28;20013;-64
2023/03/16 12:34:03;;;;;;;3.20;2.40;;;9.90;1.00;;;;;;5061170;28;20071;-64
2023/03/16 12:36:54;;;;;;;4.53;2.70;;;10.20;1.00;;;;;;5056033;28;20550;-64
2023/03/16 12:39:47;;;;;;;7.53;3.28;;;10.30;1.00;;;;;;5066558;28;20571;-64
2023/03/16 12:42:33;;;;;;;3.63;2.92;;;10.40;1.00;;;;;;5051911;28;20025;-67
2023/03/16 12:45:03;;;;;;;3.78;2.70;;;10.40;1.00;;;;;;5049696;28;20040;-64
2023/03/16 12:47:55;;;;;;;4.80;2.70;;;10.30;1.00;;;;;;5064845;28;20021;-64
2023/03/16 12:50:21;;;;;;;5.13;2.55;;;10.10;99.90;;;;;;5068727;28;20043;-64
2023/03/16 12:52:49;;;;;;;6.28;2.70;;;10.20;1.00;;;;;;5082436;28;20036;-64
2023/03/16 12:55:22;;;;;;;5.10;2.50;;;10.60;1.10;;;;;;5075466;28;20083;-64
2023/03/16 12:57:50;;;;;;;4.88;2.60;;;10.80;99.90;;;;;;5085601;28;20024;-64
2023/03/16 13:00:18;;;;;;;8.00;2.78;;;11.00;54.90;;;;;;5063946;28;20502;-64
2023/03/16 13:02:54;;;;;;;7.15;3.10;;;11.00;52.20;;;;;;5055353;28;20033;-69
2023/03/16 13:05:31;;;;;;;4.60;2.50;;;10.80;98.30;;;;;;5057490;28;20071;-64
2023/03/16 13:08:07;;;;;;;4.68;2.75;;;10.80;99.90;;;;;;5056607;28;20067;-64
2023/03/16 13:10:33;;;;;;;3.55;2.80;;;10.80;99.90;;;;;;5061603;28;20044;-64
2023/03/16 13:13:10;;;;;;;6.38;2.92;;;10.50;99.90;;;;;;5052586;28;20100;-68
2023/03/16 13:15:37;;;;;;;3.70;2.58;;;10.50;99.90;;;;;;5055525;28;20025;-64
2023/03/16 13:18:22;;;;;;;3.45;2.47;;;10.70;99.90;;;;;;5054917;28;20078;-65
2023/03/16 13:20:58;;;;;;;6.00;2.30;;;11.00;99.90;;;;;;5050093;28;20033;-64
2023/03/16 13:23:45;;;;;;;5.50;2.20;;;11.00;99.90;;;;;;5052871;28;20040;-64
2023/03/16 13:26:42;;;;;;;4.85;2.15;;;10.80;99.90;;;;;;5055101;28;20376;-64
2023/03/16 13:29:28;;;;;;;4.95;2.30;;;10.50;99.90;;;;;;5054510;28;20110;-64